sensor_id;sensor_type;location;lat;lon;timestamp;pressure;altitude;pressure_sealevel;temperature;humidity
70015;BME280;57358;51.094;6.760;2023-04-27T00:00:34;101364.75;;;4.81;77.57
70015;BME280;57358;51.094;6.760;2023-04-27T00:03:01;101377.00;;;4.76;77.72
70015;BME280;57358;51.094;6.760;2023-04-27T00:05:35;101342.00;;;4.44;79.65
70015;BME280;57358;51.094;6.760;2023-04-27T00:08:02;101384.06;;;4.69;79.13
70015;BME280;57358;51.094;6.760;2023-04-27T00:10:28;101313.00;;;4.16;80.92
70015;BME280;57358;51.094;6.760;2023-04-27T00:12:55;101327.75;;;4.14;81.81
70015;BME280;57358;51.094;6.760;2023-04-27T00:15:21;101406.78;;;4.56;82.53
70015;BME280;57358;51.094;6.760;2023-04-27T00:17:48;101330.47;;;4.06;82.38
70015;BME280;57358;51.094;6.760;2023-04-27T00:20:14;101417.13;;;4.59;82.37
70015;BME280;57358;51.094;6.760;2023-04-27T00:22:41;101428.38;;;4.60;82.18
70015;BME280;57358;51.094;6.760;2023-04-27T00:25:07;101329.56;;;4.09;82.34
70015;BME280;57358;51.094;6.760;2023-04-27T00:27:34;101424.03;;;4.62;82.85
70015;BME280;57358;51.094;6.760;2023-04-27T00:30:00;101417.16;;;4.56;82.36
70015;BME280;57358;51.094;6.760;2023-04-27T00:32:27;101381.19;;;4.32;83.03
70015;BME280;57358;51.094;6.760;2023-04-27T00:34:53;101430.78;;;4.72;83.20
70015;BME280;57358;51.094;6.760;2023-04-27T00:37:20;101270.34;;;3.75;82.30
70015;BME280;57358;51.094;6.760;2023-04-27T00:39:46;101417.97;;;4.62;83.50
70015;BME280;57358;51.094;6.760;2023-04-27T00:42:12;101447.28;;;4.71;85.20
70015;BME280;57358;51.094;6.760;2023-04-27T00:44:42;101456.03;;;4.67;85.24
70015;BME280;57358;51.094;6.760;2023-04-27T00:47:09;101449.09;;;4.66;85.01
70015;BME280;57358;51.094;6.760;2023-04-27T00:49:36;101358.16;;;4.07;84.97
70015;BME280;57358;51.094;6.760;2023-04-27T00:52:03;101376.06;;;4.26;85.01
70015;BME280;57358;51.094;6.760;2023-04-27T00:54:30;101436.94;;;4.67;85.24
70015;BME280;57358;51.094;6.760;2023-04-27T00:56:56;101412.88;;;4.54;84.75
70015;BME280;57358;51.094;6.760;2023-04-27T00:59:23;101319.34;;;3.98;84.74
70015;BME280;57358;51.094;6.760;2023-04-27T01:01:50;101418.00;;;4.60;84.36
70015;BME280;57358;51.094;6.760;2023-04-27T01:04:18;101416.34;;;4.54;83.56
70015;BME280;57358;51.094;6.760;2023-04-27T01:06:45;101402.72;;;4.38;84.25
70015;BME280;57358;51.094;6.760;2023-04-27T01:09:11;101424.16;;;4.53;83.69
70015;BME280;57358;51.094;6.760;2023-04-27T01:11:39;101425.09;;;4.49;84.17
70015;BME280;57358;51.094;6.760;2023-04-27T01:14:06;101426.00;;;4.46;85.26
70015;BME280;57358;51.094;6.760;2023-04-27T01:16:33;101433.03;;;4.39;85.26
70015;BME280;57358;51.094;6.760;2023-04-27T01:19:00;101429.59;;;4.37;85.19
70015;BME280;57358;51.094;6.760;2023-04-27T01:21:27;101324.13;;;3.65;86.20
70015;BME280;57358;51.094;6.760;2023-04-27T01:23:53;101353.34;;;3.79;86.44
70015;BME280;57358;51.094;6.760;2023-04-27T01:26:22;101298.34;;;3.53;85.80
70015;BME280;57358;51.094;6.760;2023-04-27T01:28:49;101428.03;;;4.27;86.22
70015;BME280;57358;51.094;6.760;2023-04-27T01:31:15;101346.66;;;3.62;86.47
70015;BME280;57358;51.094;6.760;2023-04-27T01:33:42;101428.28;;;4.07;87.06
70015;BME280;57358;51.094;6.760;2023-04-27T01:36:08;101395.75;;;3.80;86.92
70015;BME280;57358;51.094;6.760;2023-04-27T01:38:35;101423.31;;;3.89;87.45
70015;BME280;57358;51.094;6.760;2023-04-27T01:41:06;101436.44;;;3.78;88.02
70015;BME280;57358;51.094;6.760;2023-04-27T01:43:36;101317.16;;;2.99;89.21
70015;BME280;57358;51.094;6.760;2023-04-27T01:46:11;101439.22;;;3.64;89.90
70015;BME280;57358;51.094;6.760;2023-04-27T01:48:39;101442.72;;;3.58;90.50
70015;BME280;57358;51.094;6.760;2023-04-27T01:51:05;101451.47;;;3.53;90.67
70015;BME280;57358;51.094;6.760;2023-04-27T01:53:32;101371.59;;;2.99;91.09
70015;BME280;57358;51.094;6.760;2023-04-27T01:55:59;101371.69;;;2.88;93.08
70015;BME280;57358;51.094;6.760;2023-04-27T01:58:26;101457.72;;;3.33;92.88
70015;BME280;57358;51.094;6.760;2023-04-27T02:00:53;101458.63;;;3.29;94.09
70015;BME280;57358;51.094;6.760;2023-04-27T02:03:19;101486.31;;;3.24;95.24
70015;BME280;57358;51.094;6.760;2023-04-27T02:05:46;101453.56;;;3.12;96.29
70015;BME280;57358;51.094;6.760;2023-04-27T02:08:13;101472.56;;;3.19;97.82
70015;BME280;57358;51.094;6.760;2023-04-27T02:10:39;101420.94;;;2.88;98.35
70015;BME280;57358;51.094;6.760;2023-04-27T02:13:06;101439.88;;;3.01;98.88
70015;BME280;57358;51.094;6.760;2023-04-27T02:15:32;101418.34;;;2.93;99.42
70015;BME280;57358;51.094;6.760;2023-04-27T02:18:01;101428.66;;;2.94;99.05
70015;BME280;57358;51.094;6.760;2023-04-27T02:20:29;101401.09;;;2.86;98.81
70015;BME280;57358;51.094;6.760;2023-04-27T02:22:56;101472.44;;;3.30;98.04
70015;BME280;57358;51.094;6.760;2023-04-27T02:25:22;101472.44;;;3.30;97.46
70015;BME280;57358;51.094;6.760;2023-04-27T02:27:49;101471.66;;;3.18;97.65
70015;BME280;57358;51.094;6.760;2023-04-27T02:30:16;101475.16;;;3.17;97.61
70015;BME280;57358;51.094;6.760;2023-04-27T02:32:43;101451.94;;;3.02;97.48
70015;BME280;57358;51.094;6.760;2023-04-27T02:35:10;101396.88;;;2.75;97.96
70015;BME280;57358;51.094;6.760;2023-04-27T02:37:36;101463.16;;;3.07;98.17
70015;BME280;57358;51.094;6.760;2023-04-27T02:40:03;101403.84;;;2.67;98.04
70015;BME280;57358;51.094;6.760;2023-04-27T02:42:32;101437.41;;;2.84;99.08
70015;BME280;57358;51.094;6.760;2023-04-27T02:44:59;101457.13;;;3.02;99.40
70015;BME280;57358;51.094;6.760;2023-04-27T02:47:25;101459.72;;;3.00;99.17
70015;BME280;57358;51.094;6.760;2023-04-27T02:49:52;101458.03;;;2.98;99.18
70015;BME280;57358;51.094;6.760;2023-04-27T02:52:18;101443.38;;;2.94;98.40
70015;BME280;57358;51.094;6.760;2023-04-27T02:54:45;101352.31;;;2.35;98.64
70015;BME280;57358;51.094;6.760;2023-04-27T02:57:12;101447.75;;;2.89;98.98
70015;BME280;57358;51.094;6.760;2023-04-27T02:59:40;101408.16;;;2.68;98.40
70015;BME280;57358;51.094;6.760;2023-04-27T03:02:07;101374.63;;;2.50;99.33
70015;BME280;57358;51.094;6.760;2023-04-27T03:04:33;101439.09;;;2.90;99.07
70015;BME280;57358;51.094;6.760;2023-04-27T03:07:02;101336.78;;;2.30;99.48
70015;BME280;57358;51.094;6.760;2023-04-27T03:09:29;101370.38;;;2.43;99.34
70015;BME280;57358;51.094;6.760;2023-04-27T03:11:55;101379.81;;;2.48;99.50
70015;BME280;57358;51.094;6.760;2023-04-27T03:14:21;101424.50;;;2.79;99.89
70015;BME280;57358;51.094;6.760;2023-04-27T03:16:48;101421.91;;;2.76;99.40
70015;BME280;57358;51.094;6.760;2023-04-27T03:19:14;101391.84;;;2.55;99.21
70015;BME280;57358;51.094;6.760;2023-04-27T03:21:41;101425.44;;;2.69;99.44
70015;BME280;57358;51.094;6.760;2023-04-27T03:24:07;101425.44;;;2.69;99.69
70015;BME280;57358;51.094;6.760;2023-04-27T03:26:34;101432.38;;;2.69;100.00
70015;BME280;57358;51.094;6.760;2023-04-27T03:29:00;101428.91;;;2.67;100.00
70015;BME280;57358;51.094;6.760;2023-04-27T03:31:27;101381.59;;;2.40;100.00
70015;BME280;57358;51.094;6.760;2023-04-27T03:33:53;101284.53;;;1.74;100.00
70015;BME280;57358;51.094;6.760;2023-04-27T03:36:19;101450.50;;;2.69;100.00
70015;BME280;57358;51.094;6.760;2023-04-27T03:38:46;101240.66;;;1.57;100.00
70015;BME280;57358;51.094;6.760;2023-04-27T03:41:12;101284.47;;;1.85;100.00
70015;BME280;57358;51.094;6.760;2023-04-27T03:43:39;101413.34;;;2.68;100.00
70015;BME280;57358;51.094;6.760;2023-04-27T03:46:05;101415.13;;;2.63;100.00
70015;BME280;57358;51.094;6.760;2023-04-27T03:48:31;101406.50;;;2.61;100.00
70015;BME280;57358;51.094;6.760;2023-04-27T03:50:59;101406.50;;;2.58;100.00
70015;BME280;57358;51.094;6.760;2023-04-27T03:53:26;101415.13;;;2.60;100.00
70015;BME280;57358;51.094;6.760;2023-04-27T03:55:52;101416.03;;;2.54;100.00
70015;BME280;57358;51.094;6.760;2023-04-27T03:58:18;101416.06;;;2.51;100.00
70015;BME280;57358;51.094;6.760;2023-04-27T04:00:45;101410.88;;;2.51;100.00
70015;BME280;57358;51.094;6.760;2023-04-27T04:03:11;101417.81;;;2.51;100.00
70015;BME280;57358;51.094;6.760;2023-04-27T04:05:38;101371.38;;;2.22;100.00
70015;BME280;57358;51.094;6.760;2023-04-27T04:08:05;101429.88;;;2.52;100.00
70015;BME280;57358;51.094;6.760;2023-04-27T04:10:31;101423.03;;;2.43;100.00
70015;BME280;57358;51.094;6.760;2023-04-27T04:12:57;101435.09;;;2.44;100.00
70015;BME280;57358;51.094;6.760;2023-04-27T04:15:24;101429.97;;;2.36;100.00
70015;BME280;57358;51.094;6.760;2023-04-27T04:17:50;101427.41;;;2.33;100.00
70015;BME280;57358;51.094;6.760;2023-04-27T04:20:17;101422.28;;;2.26;100.00
70015;BME280;57358;51.094;6.760;2023-04-27T04:22:44;101420.56;;;2.22;100.00
70015;BME280;57358;51.094;6.760;2023-04-27T04:25:10;101355.19;;;1.84;100.00
70015;BME280;57358;51.094;6.760;2023-04-27T04:27:38;101373.25;;;1.96;100.00
70015;BME280;57358;51.094;6.760;2023-04-27T04:30:05;101343.06;;;1.94;100.00
70015;BME280;57358;51.094;6.760;2023-04-27T04:32:33;101433.22;;;2.66;100.00
70015;BME280;57358;51.094;6.760;2023-04-27T04:35:04;101374.69;;;2.40;100.00
70015;BME280;57358;51.094;6.760;2023-04-27T04:37:32;101437.41;;;2.84;100.00
70015;BME280;57358;51.094;6.760;2023-04-27T04:39:59;101433.94;;;2.85;100.00
70015;BME280;57358;51.094;6.760;2023-04-27T04:42:28;101433.91;;;2.90;100.00
70015;BME280;57358;51.094;6.760;2023-04-27T04:44:54;101434.78;;;2.87;100.00
70015;BME280;57358;51.094;6.760;2023-04-27T04:47:22;101439.06;;;2.93;100.00
70015;BME280;57358;51.094;6.760;2023-04-27T04:49:48;101455.97;;;3.32;100.00
70015;BME280;57358;51.094;6.760;2023-04-27T04:52:15;101468.34;;;3.89;100.00
70015;BME280;57358;51.094;6.760;2023-04-27T04:54:41;101485.75;;;4.49;100.00
70015;BME280;57358;51.094;6.760;2023-04-27T04:57:07;101427.53;;;4.61;99.37
70015;BME280;57358;51.094;6.760;2023-04-27T04:59:34;101419.78;;;5.09;95.75
70015;BME280;57358;51.094;6.760;2023-04-27T05:02:00;101471.91;;;5.98;92.97
70015;BME280;57358;51.094;6.760;2023-04-27T05:04:27;101459.56;;;6.47;90.19
70015;BME280;57358;51.094;6.760;2023-04-27T05:06:54;101452.22;;;6.98;87.76
70015;BME280;57358;51.094;6.760;2023-04-27T05:09:22;101421.97;;;7.26;84.06
70015;BME280;57358;51.094;6.760;2023-04-27T05:11:49;101378.94;;;7.39;79.68
70015;BME280;57358;51.094;6.760;2023-04-27T05:14:15;101330.81;;;7.48;77.89
70015;BME280;57358;51.094;6.760;2023-04-27T05:16:41;101340.56;;;8.01;75.94
70015;BME280;57358;51.094;6.760;2023-04-27T05:19:08;101270.47;;;7.85;71.91
70015;BME280;57358;51.094;6.760;2023-04-27T05:21:34;101204.44;;;7.80;70.12
70015;BME280;57358;51.094;6.760;2023-04-27T05:24:01;101213.38;;;8.26;69.18
70015;BME280;57358;51.094;6.760;2023-04-27T05:26:27;101194.13;;;8.54;67.55
70015;BME280;57358;51.094;6.760;2023-04-27T05:28:54;101100.66;;;8.09;66.80
70015;BME280;57358;51.094;6.760;2023-04-27T05:31:20;101200.69;;;8.89;67.04
70015;BME280;57358;51.094;6.760;2023-04-27T05:33:47;101126.03;;;8.79;65.26
70015;BME280;57358;51.094;6.760;2023-04-27T05:36:13;101161.75;;;9.26;64.82
70015;BME280;57358;51.094;6.760;2023-04-27T05:38:39;101141.69;;;9.48;64.11
70015;BME280;57358;51.094;6.760;2023-04-27T05:41:06;101119.41;;;9.58;63.23
70015;BME280;57358;51.094;6.760;2023-04-27T05:43:33;101017.09;;;8.76;62.81
70015;BME280;57358;51.094;6.760;2023-04-27T05:46:00;101146.63;;;9.76;63.40
70015;BME280;57358;51.094;6.760;2023-04-27T05:48:26;101081.34;;;9.50;62.61
70015;BME280;57358;51.094;6.760;2023-04-27T05:51:00;101116.22;;;9.72;62.29
70015;BME280;57358;51.094;6.760;2023-04-27T05:53:27;101116.94;;;9.33;63.28
70015;BME280;57358;51.094;6.760;2023-04-27T05:55:53;101135.13;;;8.92;65.19
70015;BME280;57358;51.094;6.760;2023-04-27T05:58:20;101120.88;;;8.04;66.43
70015;BME280;57358;51.094;6.760;2023-04-27T06:00:47;101125.97;;;7.56;67.28
70015;BME280;57358;51.094;6.760;2023-04-27T06:03:13;101245.13;;;7.87;69.11
70015;BME280;57358;51.094;6.760;2023-04-27T06:05:40;101213.22;;;7.49;70.38
70015;BME280;57358;51.094;6.760;2023-04-27T06:08:08;101281.31;;;7.73;70.27
70015;BME280;57358;51.094;6.760;2023-04-27T06:10:35;101195.72;;;6.95;71.02
70015;BME280;57358;51.094;6.760;2023-04-27T06:13:01;101315.66;;;7.29;71.77
70015;BME280;57358;51.094;6.760;2023-04-27T06:15:28;101331.13;;;7.37;73.21
70015;BME280;57358;51.094;6.760;2023-04-27T06:17:54;101329.06;;;7.17;73.93
70015;BME280;57358;51.094;6.760;2023-04-27T06:20:21;101346.56;;;7.13;73.93
70015;BME280;57358;51.094;6.760;2023-04-27T06:22:47;101317.69;;;6.88;75.80
70015;BME280;57358;51.094;6.760;2023-04-27T06:25:14;101385.25;;;7.32;75.62
70015;BME280;57358;51.094;6.760;2023-04-27T06:27:40;101386.94;;;7.33;75.09
70015;BME280;57358;51.094;6.760;2023-04-27T06:30:07;101382.19;;;7.47;74.52
70015;BME280;57358;51.094;6.760;2023-04-27T06:32:34;101365.00;;;7.40;73.65
70015;BME280;57358;51.094;6.760;2023-04-27T06:35:01;101362.03;;;7.52;74.85
70015;BME280;57358;51.094;6.760;2023-04-27T06:37:27;101368.53;;;7.67;73.49
70015;BME280;57358;51.094;6.760;2023-04-27T06:39:53;101350.91;;;7.46;73.63
70015;BME280;57358;51.094;6.760;2023-04-27T06:42:20;101279.63;;;7.12;73.35
70015;BME280;57358;51.094;6.760;2023-04-27T06:44:47;101243.47;;;6.98;72.06
70015;BME280;57358;51.094;6.760;2023-04-27T06:47:13;101304.16;;;7.36;71.62
70015;BME280;57358;51.094;6.760;2023-04-27T06:49:39;101330.66;;;7.54;72.85
70015;BME280;57358;51.094;6.760;2023-04-27T06:52:06;101333.19;;;7.55;71.87
70015;BME280;57358;51.094;6.760;2023-04-27T06:54:32;101326.09;;;7.61;71.34
70015;BME280;57358;51.094;6.760;2023-04-27T06:56:59;101332.84;;;7.68;71.89
70015;BME280;57358;51.094;6.760;2023-04-27T06:59:25;101340.75;;;7.94;70.75
70015;BME280;57358;51.094;6.760;2023-04-27T07:01:52;101339.59;;;8.03;71.22
70015;BME280;57358;51.094;6.760;2023-04-27T07:04:19;101314.50;;;7.97;71.12
70015;BME280;57358;51.094;6.760;2023-04-27T07:06:45;101282.13;;;8.02;69.03
70015;BME280;57358;51.094;6.760;2023-04-27T07:09:14;101268.63;;;8.15;68.17
70015;BME280;57358;51.094;6.760;2023-04-27T07:11:53;101192.88;;;7.87;67.71
70015;BME280;57358;51.094;6.760;2023-04-27T07:14:19;101230.75;;;8.27;67.39
70015;BME280;57358;51.094;6.760;2023-04-27T07:16:46;101135.78;;;7.75;66.49
70015;BME280;57358;51.094;6.760;2023-04-27T07:19:12;101251.38;;;8.36;67.78
70015;BME280;57358;51.094;6.760;2023-04-27T07:21:39;101224.50;;;8.58;65.67
70015;BME280;57358;51.094;6.760;2023-04-27T07:24:06;101123.81;;;8.19;64.99
70015;BME280;57358;51.094;6.760;2023-04-27T07:26:33;101171.88;;;8.42;65.35
70015;BME280;57358;51.094;6.760;2023-04-27T07:28:59;101148.97;;;8.49;64.65
70015;BME280;57358;51.094;6.760;2023-04-27T07:31:31;101093.34;;;8.44;63.58
70015;BME280;57358;51.094;6.760;2023-04-27T07:34:00;101101.53;;;8.58;62.32
70015;BME280;57358;51.094;6.760;2023-04-27T07:36:27;101022.72;;;8.20;62.43
70015;BME280;57358;51.094;6.760;2023-04-27T07:38:53;101016.22;;;8.30;61.61
70015;BME280;57358;51.094;6.760;2023-04-27T07:41:21;101069.16;;;8.84;62.05
70015;BME280;57358;51.094;6.760;2023-04-27T07:43:48;101086.84;;;8.99;60.86
70015;BME280;57358;51.094;6.760;2023-04-27T07:46:17;101068.53;;;8.99;60.79
70015;BME280;57358;51.094;6.760;2023-04-27T07:48:44;100993.38;;;8.81;59.98
70015;BME280;57358;51.094;6.760;2023-04-27T07:51:10;100850.47;;;7.90;60.44
70015;BME280;57358;51.094;6.760;2023-04-27T07:53:41;100928.00;;;8.57;59.78
70015;BME280;57358;51.094;6.760;2023-04-27T07:56:07;100985.69;;;8.98;59.65
70015;BME280;57358;51.094;6.760;2023-04-27T07:58:35;101007.25;;;9.26;59.02
70015;BME280;57358;51.094;6.760;2023-04-27T08:01:03;101001.69;;;9.33;59.45
70015;BME280;57358;51.094;6.760;2023-04-27T08:03:29;100988.94;;;9.46;58.46
70015;BME280;57358;51.094;6.760;2023-04-27T08:05:56;100872.06;;;9.23;56.91
70015;BME280;57358;51.094;6.760;2023-04-27T08:08:23;100772.44;;;8.66;56.88
70015;BME280;57358;51.094;6.760;2023-04-27T08:10:49;100953.78;;;9.71;57.20
70015;BME280;57358;51.094;6.760;2023-04-27T08:13:18;100815.16;;;9.46;55.07
70015;BME280;57358;51.094;6.760;2023-04-27T08:15:44;100872.53;;;9.90;55.46
70015;BME280;57358;51.094;6.760;2023-04-27T08:18:11;100929.47;;;10.07;56.05
70015;BME280;57358;51.094;6.760;2023-04-27T08:20:37;100890.03;;;10.27;54.97
70015;BME280;57358;51.094;6.760;2023-04-27T08:23:04;100858.00;;;10.21;54.20
70015;BME280;57358;51.094;6.760;2023-04-27T08:25:31;100890.75;;;10.67;53.87
70015;BME280;57358;51.094;6.760;2023-04-27T08:27:57;100829.75;;;10.62;52.80
70015;BME280;57358;51.094;6.760;2023-04-27T08:30:24;100905.06;;;10.96;53.49
70015;BME280;57358;51.094;6.760;2023-04-27T08:32:51;100820.09;;;10.80;52.25
70015;BME280;57358;51.094;6.760;2023-04-27T08:35:17;100795.34;;;11.02;51.90
70015;BME280;57358;51.094;6.760;2023-04-27T08:37:44;100730.63;;;10.67;50.90
70015;BME280;57358;51.094;6.760;2023-04-27T08:40:10;100718.66;;;10.79;50.99
70015;BME280;57358;51.094;6.760;2023-04-27T08:42:39;100816.22;;;11.05;51.48
70015;BME280;57358;51.094;6.760;2023-04-27T08:45:07;100694.22;;;10.44;50.76
70015;BME280;57358;51.094;6.760;2023-04-27T08:47:34;100730.34;;;10.56;50.73
70015;BME280;57358;51.094;6.760;2023-04-27T08:50:10;100790.56;;;10.92;50.75
70015;BME280;57358;51.094;6.760;2023-04-27T08:52:37;100755.13;;;11.01;49.72
70015;BME280;57358;51.094;6.760;2023-04-27T08:55:04;100734.00;;;10.87;49.29
70015;BME280;57358;51.094;6.760;2023-04-27T08:57:32;100751.22;;;11.08;48.87
70015;BME280;57358;51.094;6.760;2023-04-27T08:59:59;100823.66;;;11.46;48.85
70015;BME280;57358;51.094;6.760;2023-04-27T09:02:26;100786.53;;;11.52;48.25
70015;BME280;57358;51.094;6.760;2023-04-27T09:04:54;100825.84;;;11.37;49.07
70015;BME280;57358;51.094;6.760;2023-04-27T09:07:22;100723.88;;;11.28;47.19
70015;BME280;57358;51.094;6.760;2023-04-27T09:09:48;100762.31;;;11.47;47.10
70015;BME280;57358;51.094;6.760;2023-04-27T09:12:16;100826.94;;;11.67;47.53
70015;BME280;57358;51.094;6.760;2023-04-27T09:14:55;100788.84;;;11.90;46.57
70015;BME280;57358;51.094;6.760;2023-04-27T09:17:29;100795.03;;;12.05;46.05
70015;BME280;57358;51.094;6.760;2023-04-27T09:20:03;100769.41;;;11.92;45.39
70015;BME280;57358;51.094;6.760;2023-04-27T09:22:42;100846.78;;;12.20;46.55
70015;BME280;57358;51.094;6.760;2023-04-27T09:25:09;100757.22;;;11.60;46.58
70015;BME280;57358;51.094;6.760;2023-04-27T09:27:41;100837.28;;;12.17;45.88
70015;BME280;57358;51.094;6.760;2023-04-27T09:30:13;100805.72;;;12.02;45.92
70015;BME280;57358;51.094;6.760;2023-04-27T09:32:48;100779.94;;;11.92;45.75
70015;BME280;57358;51.094;6.760;2023-04-27T09:37:49;100846.84;;;12.18;45.70
70015;BME280;57358;51.094;6.760;2023-04-27T09:40:21;100823.53;;;12.43;45.02
70015;BME280;57358;51.094;6.760;2023-04-27T09:42:56;100897.28;;;13.03;44.48
70015;BME280;57358;51.094;6.760;2023-04-27T09:45:23;100881.16;;;12.93;45.11
70015;BME280;57358;51.094;6.760;2023-04-27T09:47:51;100962.34;;;13.47;45.03
70015;BME280;57358;51.094;6.760;2023-04-27T09:50:18;100917.03;;;13.41;44.53
70015;BME280;57358;51.094;6.760;2023-04-27T09:52:45;100844.94;;;12.52;45.21
70015;BME280;57358;51.094;6.760;2023-04-27T09:55:21;100865.28;;;12.65;44.86
70015;BME280;57358;51.094;6.760;2023-04-27T10:01:17;100847.78;;;12.64;44.57
70015;BME280;57358;51.094;6.760;2023-04-27T10:04:08;100853.63;;;12.38;44.89
70015;BME280;57358;51.094;6.760;2023-04-27T10:07:08;100870.97;;;12.73;44.68
70015;BME280;57358;51.094;6.760;2023-04-27T10:09:48;100893.59;;;12.61;45.16
70015;BME280;57358;51.094;6.760;2023-04-27T10:12:41;100917.59;;;13.01;43.99
70015;BME280;57358;51.094;6.760;2023-04-27T10:15:13;100777.84;;;12.74;42.31
70015;BME280;57358;51.094;6.760;2023-04-27T10:17:48;100744.41;;;12.46;42.29
70015;BME280;57358;51.094;6.760;2023-04-27T10:20:15;100925.44;;;13.47;42.74
70015;BME280;57358;51.094;6.760;2023-04-27T10:22:44;100876.91;;;13.21;42.69
70015;BME280;57358;51.094;6.760;2023-04-27T10:25:19;100807.41;;;13.08;41.26
70015;BME280;57358;51.094;6.760;2023-04-27T10:27:54;100814.19;;;13.26;41.52
70015;BME280;57358;51.094;6.760;2023-04-27T10:30:23;100787.16;;;12.80;41.81
70015;BME280;57358;51.094;6.760;2023-04-27T10:32:58;100870.44;;;13.11;42.25
70015;BME280;57358;51.094;6.760;2023-04-27T10:35:36;100852.44;;;13.48;41.49
70015;BME280;57358;51.094;6.760;2023-04-27T10:38:06;100826.16;;;13.61;39.75
70015;BME280;57358;51.094;6.760;2023-04-27T10:40:34;100835.72;;;13.90;39.44
70015;BME280;57358;51.094;6.760;2023-04-27T10:43:08;100847.75;;;13.94;39.05
70015;BME280;57358;51.094;6.760;2023-04-27T10:45:35;100965.53;;;14.10;40.62
70015;BME280;57358;51.094;6.760;2023-04-27T10:48:01;100910.38;;;14.20;39.36
70015;BME280;57358;51.094;6.760;2023-04-27T10:50:28;100911.53;;;14.43;38.88
70015;BME280;57358;51.094;6.760;2023-04-27T10:52:58;100897.72;;;13.98;39.34
70015;BME280;57358;51.094;6.760;2023-04-27T10:55:27;100921.75;;;14.34;39.20
70015;BME280;57358;51.094;6.760;2023-04-27T10:57:54;100975.25;;;14.51;39.96
70015;BME280;57358;51.094;6.760;2023-04-27T11:00:40;100971.88;;;14.49;39.89
70015;BME280;57358;51.094;6.760;2023-04-27T11:03:17;100909.28;;;14.09;39.60
70015;BME280;57358;51.094;6.760;2023-04-27T11:05:46;100944.56;;;14.21;40.14
70015;BME280;57358;51.094;6.760;2023-04-27T11:08:17;101027.16;;;14.09;41.36
70015;BME280;57358;51.094;6.760;2023-04-27T11:10:49;101019.63;;;14.17;41.24
70015;BME280;57358;51.094;6.760;2023-04-27T11:13:18;100931.84;;;14.28;39.05
70015;BME280;57358;51.094;6.760;2023-04-27T11:15:47;100999.78;;;14.67;39.44
70015;BME280;57358;51.094;6.760;2023-04-27T11:18:16;100897.84;;;14.23;39.04
70015;BME280;57358;51.094;6.760;2023-04-27T11:20:46;100789.56;;;13.42;39.39
70015;BME280;57358;51.094;6.760;2023-04-27T11:23:30;100950.25;;;14.29;39.33
70015;BME280;57358;51.094;6.760;2023-04-27T11:26:15;101028.84;;;14.39;40.56
70015;BME280;57358;51.094;6.760;2023-04-27T11:28:57;101045.53;;;14.95;39.16
70015;BME280;57358;51.094;6.760;2023-04-27T11:31:25;100990.25;;;14.65;39.66
70015;BME280;57358;51.094;6.760;2023-04-27T11:33:52;100873.72;;;14.42;37.80
70015;BME280;57358;51.094;6.760;2023-04-27T11:36:22;100970.91;;;14.64;38.47
70015;BME280;57358;51.094;6.760;2023-04-27T11:38:48;100699.88;;;13.00;38.52
70015;BME280;57358;51.094;6.760;2023-04-27T11:41:15;100926.44;;;14.44;38.20
70015;BME280;57358;51.094;6.760;2023-04-27T11:43:42;100969.94;;;14.65;39.10
70015;BME280;57358;51.094;6.760;2023-04-27T11:46:11;101045.94;;;14.62;39.45
70015;BME280;57358;51.094;6.760;2023-04-27T11:48:38;100956.50;;;14.55;38.67
70015;BME280;57358;51.094;6.760;2023-04-27T11:51:06;100973.50;;;14.37;39.93
70015;BME280;57358;51.094;6.760;2023-04-27T11:53:36;100951.00;;;14.31;39.36
70015;BME280;57358;51.094;6.760;2023-04-27T11:56:05;100920.81;;;14.21;38.85
70015;BME280;57358;51.094;6.760;2023-04-27T11:58:34;100958.72;;;14.20;39.48
70015;BME280;57358;51.094;6.760;2023-04-27T12:01:02;100985.94;;;14.64;38.76
70015;BME280;57358;51.094;6.760;2023-04-27T12:03:29;101046.38;;;14.68;40.21
70015;BME280;57358;51.094;6.760;2023-04-27T12:05:57;100918.53;;;13.88;40.30
70015;BME280;57358;51.094;6.760;2023-04-27T12:08:41;100983.97;;;14.39;40.00
70015;BME280;57358;51.094;6.760;2023-04-27T12:11:08;100974.00;;;14.15;40.24
70015;BME280;57358;51.094;6.760;2023-04-27T12:13:34;101109.78;;;14.68;41.16
70015;BME280;57358;51.094;6.760;2023-04-27T12:16:01;101035.81;;;14.54;40.85
70015;BME280;57358;51.094;6.760;2023-04-27T12:18:27;101150.41;;;14.94;41.75
70015;BME280;57358;51.094;6.760;2023-04-27T12:20:54;101023.88;;;14.90;40.21
70015;BME280;57358;51.094;6.760;2023-04-27T12:23:20;100975.53;;;14.61;39.39
70015;BME280;57358;51.094;6.760;2023-04-27T12:25:47;101032.94;;;14.86;40.29
70015;BME280;57358;51.094;6.760;2023-04-27T12:28:13;101029.63;;;15.09;39.12
70015;BME280;57358;51.094;6.760;2023-04-27T12:30:44;101051.59;;;15.37;39.34
70015;BME280;57358;51.094;6.760;2023-04-27T12:33:10;101070.56;;;15.16;40.08
70015;BME280;57358;51.094;6.760;2023-04-27T12:35:37;101042.41;;;15.43;39.17
70015;BME280;57358;51.094;6.760;2023-04-27T12:38:03;100994.88;;;15.41;38.02
70015;BME280;57358;51.094;6.760;2023-04-27T12:40:30;100932.03;;;15.19;37.26
70015;BME280;57358;51.094;6.760;2023-04-27T12:42:56;101009.91;;;15.28;37.58
70015;BME280;57358;51.094;6.760;2023-04-27T12:45:26;101030.47;;;15.50;37.99
70015;BME280;57358;51.094;6.760;2023-04-27T12:47:52;100942.59;;;15.06;37.56
70015;BME280;57358;51.094;6.760;2023-04-27T12:50:30;101043.06;;;15.59;38.38
70015;BME280;57358;51.094;6.760;2023-04-27T12:52:57;101081.66;;;15.76;37.92
70015;BME280;57358;51.094;6.760;2023-04-27T12:55:23;100999.56;;;15.50;37.57
70015;BME280;57358;51.094;6.760;2023-04-27T12:57:59;100895.56;;;14.59;38.85
70015;BME280;57358;51.094;6.760;2023-04-27T13:00:26;101041.28;;;15.60;37.92
70015;BME280;57358;51.094;6.760;2023-04-27T13:02:52;101005.25;;;15.31;37.61
70015;BME280;57358;51.094;6.760;2023-04-27T13:05:19;101073.50;;;15.92;38.04